This is the latest recevied weather packets stored in our database for station/object SP8C-13. If no packets are shown the sender has not sent any weather packets the latest 10 day(s).
| Time | Temp. | Humidity | Pressure | Rain* | Wind** | Luminosity | Snow |
|---|---|---|---|---|---|---|---|
| 1777576415 | 7.78° C | 42% | 1027 hPa | - | - | - | - |
| 1777574615 | 7.78° C | 39% | 1027 hPa | - | - | - | - |
| 1777572815 | 8.33° C | 39% | 1027 hPa | - | - | - | - |
| 1777571015 | 8.89° C | 38% | 1026.7 hPa | - | - | - | - |
| 1777569214 | 9.44° C | 35% | 1026.6 hPa | - | - | - | - |
| 1777567414 | 10° C | 32% | 1026.6 hPa | - | - | - | - |
| 1777565614 | 10.56° C | 30% | 1026.4 hPa | - | - | - | - |
| 1777563814 | 11.67° C | 28% | 1026.4 hPa | - | - | - | - |
| 1777562014 | 11.67° C | 26% | 1026.5 hPa | - | - | - | - |
| 1777560214 | 12.22° C | 28% | 1026.7 hPa | - | - | - | - |
| 1777558413 | 12.22° C | 31% | 1026.9 hPa | - | - | - | - |
| 1777556612 | 13.33° C | 32% | 1027.1 hPa | - | - | - | - |
| 1777554812 | 13.33° C | 34% | 1027.3 hPa | - | - | - | - |
| 1777553012 | 13.33° C | 33% | 1027.7 hPa | - | - | - | - |
| 1777551212 | 13.89° C | 33% | 1028 hPa | - | - | - | - |
| 1777549412 | 12.78° C | 36% | 1028.5 hPa | - | - | - | - |
| 1777547611 | 12.78° C | 36% | 1028.7 hPa | - | - | - | - |
| 1777545811 | 11.67° C | 37% | 1029 hPa | - | - | - | - |
| 1777544011 | 11.11° C | 39% | 1029.4 hPa | - | - | - | - |
| 1777542211 | 9.44° C | 42% | 1029.8 hPa | - | - | - | - |
| 1777540411 | 9.44° C | 41% | 1029.8 hPa | - | - | - | - |
| 1777538610 | 8.89° C | 41% | 1030 hPa | - | - | - | - |
| 1777536810 | 8.89° C | 40% | 1030.3 hPa | - | - | - | - |
| 1777533220 | 8.33° C | 44% | 1030.6 hPa | - | - | - | - |
| 1777531420 | 7.22° C | 50% | 1030.9 hPa | - | - | - | - |
* Rain since midnight (hover to see other rain measurements)
** Current wind speed in m/s (hover to see current wind gust speed)